createdAt,value
2022-09-12T00:00:46.236Z,60.81
2022-09-12T00:03:13.448Z,62.33
2022-09-12T00:05:47.665Z,64.86
2022-09-12T00:08:15.274Z,67.37
2022-09-12T00:10:44.270Z,69.21
2022-09-12T00:13:11.880Z,70.43
2022-09-12T00:15:43.517Z,69.63
2022-09-12T00:18:16.633Z,73.92
2022-09-12T00:20:45.676Z,77.09
2022-09-12T00:23:13.870Z,82.00
2022-09-12T00:25:46.415Z,87.02
2022-09-12T00:28:15.376Z,88.30
2022-09-12T00:30:43.229Z,90.17
2022-09-12T00:33:11.059Z,91.58
2022-09-12T00:35:53.157Z,91.95
2022-09-12T00:38:21.119Z,91.20
2022-09-12T00:40:48.614Z,92.57
2022-09-12T00:43:35.724Z,94.04
2022-09-12T00:46:07.561Z,92.41
2022-09-12T00:48:42.703Z,91.72
2022-09-12T00:51:10.097Z,91.37
2022-09-12T00:53:38.631Z,91.25
2022-09-12T00:56:06.159Z,91.40
2022-09-12T00:58:40.562Z,94.65
2022-09-12T01:01:07.536Z,96.84
2022-09-12T01:03:35.026Z,97.38
2022-09-12T01:06:09.639Z,97.23
2022-09-12T01:08:37.597Z,96.63
2022-09-12T01:11:05.886Z,96.12
2022-09-12T01:13:35.249Z,95.13
2022-09-12T01:16:06.542Z,96.68
2022-09-12T01:18:55.765Z,95.89
2022-09-12T01:21:48.766Z,95.81
2022-09-12T01:24:33.616Z,95.47
2022-09-12T01:27:27.035Z,96.06
2022-09-12T01:30:26.237Z,96.34
2022-09-12T01:32:55.706Z,94.29
2022-09-12T01:35:52.026Z,95.30
2022-09-12T01:38:36.441Z,93.24
2022-09-12T01:41:12.399Z,93.89
2022-09-12T01:43:45.867Z,94.36
2022-09-12T01:46:17.859Z,94.36
2022-09-12T01:48:47.310Z,92.80
2022-09-12T01:51:29.986Z,93.04
2022-09-12T01:54:07.065Z,93.33
2022-09-12T01:56:39.104Z,92.91
2022-09-12T01:59:15.411Z,94.04
2022-09-12T02:01:55.170Z,93.51
2022-09-12T02:04:33.507Z,93.93
2022-09-12T02:07:24.009Z,95.57
2022-09-12T02:10:07.817Z,95.91
2022-09-12T02:12:41.624Z,97.20
2022-09-12T02:15:10.517Z,98.19
2022-09-12T02:17:41.270Z,97.15
2022-09-12T02:20:25.961Z,97.43
2022-09-12T02:23:08.385Z,96.06
2022-09-12T02:25:40.143Z,96.43
2022-09-12T02:28:29.646Z,94.09
2022-09-12T02:31:14.667Z,95.50
2022-09-12T02:33:50.228Z,98.02
2022-09-12T02:36:24.067Z,99.26
2022-09-12T02:38:51.462Z,97.75
2022-09-12T02:41:20.833Z,97.57
2022-09-12T02:43:50.605Z,98.72
2022-09-12T02:46:33.835Z,97.25
2022-09-12T02:49:00.974Z,95.29
2022-09-12T02:51:28.053Z,94.40
2022-09-12T02:53:55.470Z,94.68
2022-09-12T02:56:27.562Z,95.17
2022-09-12T02:59:01.664Z,95.03
2022-09-12T03:01:46.825Z,96.79
2022-09-12T03:04:28.695Z,98.29
2022-09-12T03:07:15.963Z,100.00
2022-09-12T03:09:49.395Z,100.00
2022-09-12T03:12:40.510Z,100.00
2022-09-12T03:15:21.983Z,100.00
2022-09-12T03:18:27.968Z,100.00
2022-09-12T03:21:02.932Z,100.00
2022-09-12T03:24:04.481Z,100.00
2022-09-12T03:26:54.988Z,100.00
2022-09-12T03:29:24.462Z,100.00
2022-09-12T03:31:57.079Z,100.00
2022-09-12T03:34:26.625Z,100.00
2022-09-12T03:36:57.570Z,100.00
2022-09-12T03:39:26.552Z,100.00
2022-09-12T03:41:54.871Z,99.11
2022-09-12T03:44:22.211Z,96.08
2022-09-12T03:46:49.207Z,95.58
2022-09-12T03:49:16.678Z,94.36
2022-09-12T03:51:43.859Z,95.16
2022-09-12T03:54:11.031Z,93.73
2022-09-12T03:56:37.918Z,94.53
2022-09-12T03:59:06.917Z,94.89
2022-09-12T04:01:33.919Z,96.52
2022-09-12T04:04:00.902Z,96.35
2022-09-12T04:06:27.778Z,94.55
2022-09-12T04:08:55.184Z,95.21
2022-09-12T04:11:23.083Z,95.12
2022-09-12T04:13:50.399Z,96.17
2022-09-12T04:16:18.901Z,95.21
2022-09-12T04:18:46.898Z,93.38
2022-09-12T04:21:17.069Z,92.14
2022-09-12T04:23:44.149Z,88.94
2022-09-12T04:26:11.889Z,89.34
2022-09-12T04:28:38.910Z,89.87
2022-09-12T04:31:09.126Z,88.54
2022-09-12T04:33:36.482Z,88.21
2022-09-12T04:36:12.166Z,88.29
2022-09-12T04:38:39.171Z,88.52
2022-09-12T04:41:17.527Z,88.94
2022-09-12T04:43:48.456Z,90.49
2022-09-12T04:46:19.858Z,90.87
2022-09-12T04:48:47.998Z,89.53
2022-09-12T04:51:18.048Z,90.04
2022-09-12T04:53:49.684Z,89.73
2022-09-12T04:56:16.748Z,87.74
2022-09-12T04:58:43.965Z,88.12
2022-09-12T05:01:13.851Z,87.68
2022-09-12T05:03:43.588Z,86.78
2022-09-12T05:06:13.963Z,85.64
2022-09-12T05:08:41.424Z,85.32
2022-09-12T05:11:12.868Z,85.65
2022-09-12T05:13:40.251Z,84.73
2022-09-12T05:16:10.382Z,85.85
2022-09-12T05:18:37.331Z,86.56
2022-09-12T05:21:07.307Z,85.71
2022-09-12T05:23:34.543Z,86.23
2022-09-12T05:26:02.649Z,85.62
2022-09-12T05:28:35.471Z,85.31
2022-09-12T05:31:12.007Z,84.44
2022-09-12T05:33:41.378Z,83.18
2022-09-12T05:36:15.156Z,79.21
2022-09-12T05:38:42.076Z,75.60
2022-09-12T05:41:24.712Z,69.66
2022-09-12T05:43:56.835Z,63.29
2022-09-12T05:46:29.165Z,60.39
2022-09-12T05:48:58.458Z,59.89
2022-09-12T05:51:28.243Z,60.02
2022-09-12T05:54:00.361Z,64.40
2022-09-12T05:56:29.229Z,68.98
2022-09-12T05:58:59.349Z,71.39
2022-09-12T06:01:27.442Z,72.01
2022-09-12T06:03:56.248Z,74.40
2022-09-12T06:06:24.936Z,69.98
2022-09-12T06:08:54.184Z,69.93
2022-09-12T06:11:23.805Z,68.88
2022-09-12T06:13:51.282Z,66.25
2022-09-12T06:16:21.095Z,64.34
2022-09-12T06:18:49.822Z,64.10
2022-09-12T06:21:16.856Z,60.62
2022-09-12T06:23:46.313Z,60.81
2022-09-12T06:26:14.007Z,57.39
2022-09-12T06:28:42.516Z,60.05
2022-09-12T06:31:12.429Z,61.63
2022-09-12T06:33:41.869Z,61.69
2022-09-12T06:36:12.728Z,63.89
2022-09-12T06:38:40.354Z,64.12
2022-09-12T06:41:11.514Z,64.88
2022-09-12T06:43:40.074Z,59.45
2022-09-12T06:46:07.733Z,58.70
2022-09-12T06:48:39.623Z,56.96
2022-09-12T06:51:13.976Z,50.25
2022-09-12T06:53:41.682Z,52.01
2022-09-12T06:56:22.827Z,54.50
2022-09-12T06:58:51.433Z,52.17
2022-09-12T07:01:31.197Z,51.99
2022-09-12T07:04:00.516Z,52.26
2022-09-12T07:06:32.164Z,49.32
2022-09-12T07:09:00.262Z,50.08
2022-09-12T07:11:31.919Z,50.49
2022-09-12T07:14:00.978Z,52.32
2022-09-12T07:16:28.624Z,50.92
2022-09-12T07:18:58.655Z,51.94
2022-09-12T07:21:26.032Z,52.22
2022-09-12T07:23:55.342Z,52.29
2022-09-12T07:26:22.427Z,51.81
2022-09-12T07:28:54.634Z,48.63
2022-09-12T07:31:23.946Z,47.48
2022-09-12T07:33:54.650Z,42.63
2022-09-12T07:36:25.411Z,41.97
2022-09-12T07:38:58.603Z,43.88
2022-09-12T07:41:31.246Z,43.75
2022-09-12T07:44:00.155Z,42.00
2022-09-12T07:46:29.679Z,40.25
2022-09-12T07:48:58.322Z,42.39
2022-09-12T07:51:26.926Z,42.60
2022-09-12T07:53:54.407Z,41.47
2022-09-12T07:56:29.379Z,39.37
2022-09-12T07:58:57.636Z,40.39
2022-09-12T08:01:24.929Z,41.42
2022-09-12T08:03:57.279Z,40.79
2022-09-12T08:06:25.889Z,41.14
2022-09-12T08:08:55.414Z,40.59
2022-09-12T08:11:23.401Z,40.98
2022-09-12T08:13:55.439Z,41.01
2022-09-12T08:16:25.493Z,40.35
2022-09-12T08:18:52.499Z,38.84
2022-09-12T08:21:24.813Z,39.25
2022-09-12T08:23:54.301Z,36.71
2022-09-12T08:26:21.495Z,35.18
2022-09-12T08:28:49.234Z,34.43
2022-09-12T08:31:18.466Z,35.39
2022-09-12T08:33:45.653Z,34.32
2022-09-12T08:36:17.382Z,34.76
2022-09-12T08:38:46.511Z,34.79
2022-09-12T08:41:28.057Z,33.76
2022-09-12T08:44:17.381Z,33.78
2022-09-12T08:47:10.287Z,37.60
2022-09-12T08:49:56.655Z,40.91
2022-09-12T08:52:39.087Z,41.52
2022-09-12T08:55:13.538Z,40.95
2022-09-12T08:57:40.504Z,41.38
2022-09-12T09:00:12.880Z,42.20
2022-09-12T09:03:00.278Z,41.65
2022-09-12T09:05:52.783Z,38.81
2022-09-12T09:08:59.088Z,37.21
2022-09-12T09:11:28.900Z,33.14
2022-09-12T09:14:35.274Z,29.78
2022-09-12T09:17:03.393Z,30.58
2022-09-12T09:19:40.790Z,29.75
2022-09-12T09:22:17.873Z,29.16
2022-09-12T09:24:50.774Z,29.83
2022-09-12T09:27:41.035Z,28.98
2022-09-12T09:30:15.848Z,26.03
2022-09-12T09:32:46.189Z,25.83
2022-09-12T09:35:15.925Z,25.80
2022-09-12T09:37:54.547Z,27.30
2022-09-12T09:40:30.328Z,27.92
2022-09-12T09:43:02.358Z,31.30
2022-09-12T09:45:29.912Z,31.98
2022-09-12T09:48:13.836Z,32.88
2022-09-12T09:50:48.391Z,33.48
2022-09-12T09:53:46.286Z,31.08
2022-09-12T09:56:35.779Z,28.88
2022-09-12T09:59:33.826Z,28.40
2022-09-12T10:02:13.247Z,26.32
2022-09-12T10:04:52.858Z,26.13
2022-09-12T10:07:21.929Z,25.45
2022-09-12T10:10:14.458Z,26.45
2022-09-12T10:12:41.507Z,29.46
2022-09-12T10:15:38.547Z,28.62
2022-09-12T10:18:05.699Z,30.61
2022-09-12T10:20:39.694Z,31.14
2022-09-12T10:23:25.340Z,31.95
2022-09-12T10:26:01.731Z,29.31
2022-09-12T10:28:40.093Z,26.76
2022-09-12T10:31:10.567Z,28.10
2022-09-12T10:33:53.908Z,28.26
2022-09-12T10:36:22.303Z,25.76
2022-09-12T10:38:55.115Z,28.09
2022-09-12T10:41:22.184Z,31.92
2022-09-12T10:43:49.983Z,32.30
2022-09-12T10:46:19.802Z,31.93
2022-09-12T10:48:51.670Z,32.86
2022-09-12T10:51:24.623Z,31.20
2022-09-12T10:53:57.684Z,31.45
2022-09-12T10:56:29.100Z,32.00
2022-09-12T10:59:20.135Z,32.48
2022-09-12T11:01:49.706Z,30.95
2022-09-12T11:04:54.169Z,30.67
2022-09-12T11:07:36.070Z,30.71
2022-09-12T11:10:35.729Z,30.50
2022-09-12T11:13:18.556Z,27.21
2022-09-12T11:16:23.083Z,26.79
2022-09-12T11:18:56.026Z,28.25
2022-09-12T11:21:58.274Z,29.26
2022-09-12T11:24:47.331Z,30.60
2022-09-12T11:27:43.381Z,29.88
2022-09-12T11:30:16.419Z,30.05
2022-09-12T11:33:31.047Z,32.25
2022-09-12T11:35:58.086Z,32.93
2022-09-12T11:38:43.278Z,33.48
2022-09-12T11:41:20.517Z,33.49
2022-09-12T11:44:11.810Z,33.52
2022-09-12T11:46:46.728Z,32.47
2022-09-12T11:49:19.679Z,26.73
2022-09-12T11:52:16.047Z,25.68
2022-09-12T11:54:54.149Z,27.17
2022-09-12T11:57:29.433Z,27.74
2022-09-12T12:00:18.636Z,29.88
2022-09-12T12:03:01.305Z,32.20
2022-09-12T12:05:55.612Z,31.90
2022-09-12T12:08:24.151Z,31.42
2022-09-12T12:10:59.937Z,30.40
2022-09-12T12:13:46.871Z,29.64
2022-09-12T12:16:27.027Z,26.63
2022-09-12T12:19:00.458Z,24.59
2022-09-12T12:21:44.526Z,25.47
2022-09-12T12:24:20.843Z,26.86
2022-09-12T12:26:52.436Z,29.89
2022-09-12T12:29:21.851Z,31.17
2022-09-12T12:32:07.876Z,30.71
2022-09-12T12:34:46.781Z,30.69
2022-09-12T12:37:19.572Z,31.66
2022-09-12T12:39:52.802Z,32.43
2022-09-12T12:42:35.182Z,31.78
2022-09-12T12:45:27.371Z,29.66
2022-09-12T12:47:58.285Z,27.27
2022-09-12T12:50:28.227Z,27.82
2022-09-12T12:53:03.304Z,30.08
2022-09-12T12:55:46.930Z,31.10
2022-09-12T12:58:29.118Z,30.77
2022-09-12T13:01:23.256Z,31.22
2022-09-12T13:04:04.381Z,30.85
2022-09-12T13:06:36.245Z,30.76
2022-09-12T13:09:10.122Z,31.41
2022-09-12T13:11:39.335Z,30.35
2022-09-12T13:14:43.630Z,30.56
2022-09-12T13:17:22.866Z,31.08
2022-09-12T13:20:10.655Z,31.37
2022-09-12T13:22:42.595Z,30.50
2022-09-12T13:25:38.928Z,30.73
2022-09-12T13:28:11.579Z,29.26
2022-09-12T13:30:42.606Z,29.66
2022-09-12T13:33:18.935Z,31.33
2022-09-12T13:36:13.662Z,30.99
2022-09-12T13:39:05.662Z,30.72
2022-09-12T13:41:41.494Z,32.52
2022-09-12T13:44:13.379Z,32.93
2022-09-12T13:46:40.935Z,33.48
2022-09-12T13:49:16.111Z,33.69
2022-09-12T13:51:43.739Z,33.11
2022-09-12T13:54:21.411Z,33.39
2022-09-12T13:56:51.364Z,31.27
2022-09-12T13:59:18.252Z,32.23
2022-09-12T14:01:47.424Z,32.29
2022-09-12T14:04:50.731Z,32.00
2022-09-12T14:07:25.898Z,33.38
2022-09-12T14:09:56.001Z,33.36
2022-09-12T14:12:37.577Z,33.42
2022-09-12T14:15:05.660Z,33.35
2022-09-12T14:17:39.486Z,33.23
2022-09-12T14:20:14.547Z,33.15
2022-09-12T14:22:41.737Z,33.13
2022-09-12T14:25:19.492Z,32.96
2022-09-12T14:27:50.946Z,32.79
2022-09-12T14:30:36.693Z,32.43
2022-09-12T14:33:10.550Z,32.71
2022-09-12T14:35:53.232Z,33.14
2022-09-12T14:38:37.553Z,33.08
2022-09-12T14:41:09.214Z,32.43
2022-09-12T14:43:45.825Z,32.46
2022-09-12T14:46:38.916Z,32.25
2022-09-12T14:49:27.800Z,31.50
2022-09-12T14:52:00.927Z,30.90
2022-09-12T14:54:27.734Z,30.23
2022-09-12T14:56:58.822Z,30.08
2022-09-12T14:59:30.365Z,30.31
2022-09-12T15:02:21.454Z,30.77
2022-09-12T15:04:49.444Z,31.03
2022-09-12T15:07:34.715Z,31.21
2022-09-12T15:10:22.121Z,30.82
2022-09-12T15:12:49.981Z,31.18
2022-09-12T15:15:20.146Z,31.59
2022-09-12T15:17:47.713Z,31.90
2022-09-12T15:20:14.827Z,33.34
2022-09-12T15:22:42.517Z,33.29
2022-09-12T15:25:12.574Z,32.76
2022-09-12T15:27:41.025Z,32.57
2022-09-12T15:30:13.366Z,32.02
2022-09-12T15:32:42.414Z,31.60
2022-09-12T15:35:32.701Z,32.53
2022-09-12T15:37:59.697Z,33.02
2022-09-12T15:40:26.736Z,32.65
2022-09-12T15:42:53.599Z,32.73
2022-09-12T15:45:27.903Z,32.95
2022-09-12T15:47:55.687Z,32.95
2022-09-12T15:50:22.882Z,32.97
2022-09-12T15:52:49.975Z,33.45
2022-09-12T15:55:24.322Z,33.36
2022-09-12T15:57:51.242Z,33.58
2022-09-12T16:00:19.353Z,33.61
2022-09-12T16:02:51.378Z,33.73
2022-09-12T16:05:25.204Z,33.59
2022-09-12T16:07:54.063Z,34.11
2022-09-12T16:10:24.350Z,33.91
2022-09-12T16:12:51.574Z,34.85
2022-09-12T16:15:21.978Z,34.80
2022-09-12T16:17:49.209Z,35.00
2022-09-12T16:20:16.595Z,35.71
2022-09-12T16:22:43.848Z,35.93
2022-09-12T16:25:10.783Z,36.57
2022-09-12T16:27:38.114Z,36.68
2022-09-12T16:30:07.724Z,36.76
2022-09-12T16:32:34.661Z,37.39
2022-09-12T16:35:02.044Z,37.31
2022-09-12T16:37:29.039Z,36.79
2022-09-12T16:39:56.058Z,36.38
2022-09-12T16:42:23.130Z,36.20
2022-09-12T16:44:50.289Z,42.23
2022-09-12T16:47:17.435Z,47.33
2022-09-12T16:49:44.418Z,50.41
2022-09-12T16:52:12.801Z,50.45
2022-09-12T16:54:40.858Z,50.97
2022-09-12T16:57:07.852Z,51.76
2022-09-12T16:59:34.748Z,51.37
2022-09-12T17:02:02.443Z,51.13
2022-09-12T17:04:29.586Z,52.52
2022-09-12T17:06:59.482Z,52.55
2022-09-12T17:09:28.288Z,53.91
2022-09-12T17:11:56.646Z,53.18
2022-09-12T17:14:24.133Z,52.70
2022-09-12T17:16:52.128Z,53.74
2022-09-12T17:19:28.178Z,52.51
2022-09-12T17:21:55.868Z,52.06
2022-09-12T17:24:23.262Z,51.80
2022-09-12T17:26:51.752Z,51.91
2022-09-12T17:29:18.756Z,53.19
2022-09-12T17:31:45.904Z,47.88
2022-09-12T17:34:17.857Z,46.19
2022-09-12T17:36:48.320Z,44.04
2022-09-12T17:39:15.489Z,45.33
2022-09-12T17:41:43.317Z,45.19
2022-09-12T17:44:15.117Z,45.63
2022-09-12T17:46:42.586Z,46.18
2022-09-12T17:49:15.026Z,46.59
2022-09-12T17:51:43.798Z,47.55
2022-09-12T17:54:16.212Z,46.76
2022-09-12T17:56:44.461Z,45.05
2022-09-12T17:59:15.492Z,44.67
2022-09-12T18:02:00.887Z,44.81
2022-09-12T18:04:27.836Z,45.17
2022-09-12T18:06:55.143Z,44.83
2022-09-12T18:09:25.011Z,44.52
2022-09-12T18:11:53.146Z,46.16
2022-09-12T18:14:21.044Z,46.60
2022-09-12T18:16:48.651Z,46.78
2022-09-12T18:19:16.033Z,48.37
2022-09-12T18:21:43.043Z,48.34
2022-09-12T18:24:10.737Z,48.94
2022-09-12T18:26:38.150Z,48.77
2022-09-12T18:29:05.349Z,48.10
2022-09-12T18:31:32.263Z,48.08
2022-09-12T18:34:02.752Z,49.80
2022-09-12T18:36:30.500Z,49.36
2022-09-12T18:38:58.987Z,49.58
2022-09-12T18:41:26.937Z,48.94
2022-09-12T18:43:58.961Z,49.16
2022-09-12T18:46:27.567Z,48.68
2022-09-12T18:48:58.820Z,48.64
2022-09-12T18:51:31.705Z,48.25
2022-09-12T18:54:06.227Z,48.69
2022-09-12T18:56:36.063Z,49.50
2022-09-12T18:59:05.356Z,49.16
2022-09-12T19:01:34.572Z,49.61
2022-09-12T19:04:04.814Z,49.94
2022-09-12T19:06:34.955Z,50.06
2022-09-12T19:09:07.326Z,50.43
2022-09-12T19:11:36.920Z,51.19
2022-09-12T19:14:05.008Z,51.02
2022-09-12T19:16:32.343Z,50.74
2022-09-12T19:18:59.725Z,51.19
2022-09-12T19:21:29.025Z,51.79
2022-09-12T19:23:59.227Z,52.07
2022-09-12T19:26:26.563Z,52.02
2022-09-12T19:28:55.132Z,52.36
2022-09-12T19:31:23.406Z,52.29
2022-09-12T19:33:52.516Z,52.63
2022-09-12T19:36:43.731Z,52.78
2022-09-12T19:39:08.872Z,53.22
2022-09-12T19:41:36.456Z,53.14
2022-09-12T19:44:04.505Z,54.82
2022-09-12T19:46:31.956Z,55.31
2022-09-12T19:48:59.064Z,55.58
2022-09-12T19:51:26.115Z,55.17
2022-09-12T19:53:53.549Z,55.07
2022-09-12T19:56:20.804Z,55.43
2022-09-12T19:58:52.292Z,55.15
2022-09-12T20:01:25.134Z,55.28
2022-09-12T20:03:55.213Z,54.82
2022-09-12T20:06:22.658Z,53.83
2022-09-12T20:08:49.958Z,53.55
2022-09-12T20:11:22.177Z,53.62
2022-09-12T20:13:49.439Z,53.98
2022-09-12T20:16:22.730Z,55.37
2022-09-12T20:18:57.976Z,56.39
2022-09-12T20:21:31.608Z,57.79
2022-09-12T20:24:12.067Z,58.53
2022-09-12T20:26:40.082Z,58.82
2022-09-12T20:29:07.838Z,58.70
2022-09-12T20:31:35.289Z,58.11
2022-09-12T20:34:02.908Z,59.89
2022-09-12T20:36:29.848Z,59.23
2022-09-12T20:39:02.839Z,59.75
2022-09-12T20:41:33.181Z,59.20
2022-09-12T20:44:00.425Z,59.17
2022-09-12T20:46:28.819Z,59.49
2022-09-12T20:48:55.911Z,58.10
2022-09-12T20:51:23.031Z,57.50
2022-09-12T20:53:54.571Z,57.54
2022-09-12T20:56:22.269Z,57.78
2022-09-12T20:58:49.799Z,58.57
2022-09-12T21:01:17.333Z,59.04
2022-09-12T21:03:45.502Z,59.50
2022-09-12T21:06:14.344Z,59.33
2022-09-12T21:08:41.361Z,59.34
2022-09-12T21:11:08.670Z,60.62
2022-09-12T21:13:36.573Z,60.62
2022-09-12T21:16:14.471Z,60.51
2022-09-12T21:18:42.067Z,60.45
2022-09-12T21:21:11.704Z,60.69
2022-09-12T21:23:39.134Z,61.35
2022-09-12T21:26:06.353Z,61.83
2022-09-12T21:28:33.463Z,62.29
2022-09-12T21:31:00.773Z,62.94
2022-09-12T21:33:28.298Z,62.68
2022-09-12T21:35:55.235Z,62.71
2022-09-12T21:38:22.117Z,62.34
2022-09-12T21:40:49.139Z,62.28
2022-09-12T21:43:16.105Z,61.46
2022-09-12T21:45:43.056Z,61.90
2022-09-12T21:48:10.739Z,61.06
2022-09-12T21:50:37.583Z,61.28
2022-09-12T21:53:04.466Z,60.59
2022-09-12T21:55:31.348Z,60.47
2022-09-12T21:57:58.215Z,59.96
2022-09-12T22:00:25.157Z,59.95
2022-09-12T22:02:52.674Z,60.12
2022-09-12T22:05:21.425Z,60.81
2022-09-12T22:07:48.338Z,60.42
2022-09-12T22:10:15.420Z,59.77
2022-09-12T22:12:46.212Z,59.95
2022-09-12T22:15:38.789Z,59.35
2022-09-12T22:18:00.896Z,59.64
2022-09-12T22:20:27.972Z,59.86
2022-09-12T22:23:13.394Z,59.39
2022-09-12T22:25:40.257Z,59.87
2022-09-12T22:28:07.234Z,60.26
2022-09-12T22:30:34.146Z,60.35
2022-09-12T22:33:01.168Z,60.14
2022-09-12T22:35:28.012Z,60.10
2022-09-12T22:37:54.911Z,60.18
2022-09-12T22:40:21.980Z,61.12
2022-09-12T22:42:52.405Z,61.23
2022-09-12T22:45:20.043Z,60.54
2022-09-12T22:47:47.007Z,60.21
2022-09-12T22:50:14.347Z,60.35
2022-09-12T22:52:41.768Z,60.35
2022-09-12T22:55:09.260Z,60.68
2022-09-12T22:57:36.314Z,61.06
2022-09-12T23:00:08.119Z,61.29
2022-09-12T23:02:35.077Z,62.61
2022-09-12T23:05:02.712Z,62.92
2022-09-12T23:07:29.654Z,63.49
2022-09-12T23:09:56.606Z,64.28
2022-09-12T23:12:23.575Z,64.86
2022-09-12T23:14:50.467Z,66.09
2022-09-12T23:17:17.382Z,65.45
2022-09-12T23:19:44.365Z,64.88
2022-09-12T23:22:11.251Z,66.87
2022-09-12T23:24:38.470Z,67.52
2022-09-12T23:27:06.105Z,67.65
2022-09-12T23:29:35.461Z,67.73
2022-09-12T23:32:04.337Z,68.31
2022-09-12T23:34:31.243Z,67.73
2022-09-12T23:36:58.121Z,67.31
2022-09-12T23:39:25.083Z,67.61
2022-09-12T23:41:52.282Z,68.62
2022-09-12T23:44:19.237Z,69.05
2022-09-12T23:46:46.122Z,69.51
2022-09-12T23:49:13.047Z,70.16
2022-09-12T23:51:39.910Z,71.22
2022-09-12T23:54:06.861Z,71.66
2022-09-12T23:56:33.787Z,71.89
2022-09-12T23:59:00.737Z,72.70
